Detroit, Michigan
Current Conditions -  °F | °C
As of 12:00 PM on Friday 31 Oct 2014 (Local Time) from CYQG Reporting Station
Light Rain Light Rain  
Wind Chill: 42°   Ceiling: 2600
Heat Index: 45°   Visibility: 5mi
Dew Point: 41°   Wind: 5mph
Humidity: 87%   Direction: 280°W
Pressure: 29.88"   Gusts: NA
Location:  42.33°N, 83.05°W
Report Text: CYQG 311600Z 28004KT 5SM -RA BR SCT008 OVC026 07/05 A2988 RMK SF3NS5 SLP122
Loading
Personal Weather Stations






























Interactive Weather Map
Tropical Storm Tracking
New forecast layout! Learn more

10-Day Weather Forecast

Advertisements
Track Severe Weather on mobile